Castle Hayne, North Carolina
Current Conditions -  °F | °C
As of 11:53 AM on Thursday 23 Oct 2014 (Local Time) from KILM Reporting Station
Clear Clear  
Wind Chill: 63°   Ceiling: Unl
Heat Index: 63°   Visibility: 10mi
Dew Point: 44°   Wind: 8mph
Humidity: 50%   Direction: 330°NNW
Pressure: 30"   Gusts: NA
Location:  34.36°N, 77.9°W
Report Text: KILM 231553Z 33007KT 10SM CLR 17/07 A3000 RMK AO2 SLP159 T01720067
Loading
Personal Weather Stations






























Interactive Weather Map
Tropical Storm Tracking
New forecast layout! Learn more

10-Day Weather Forecast

Advertisements
Track Severe Weather on mobile